sensor_id;sensor_type;location;lat;lon;timestamp;P1;durP1;ratioP1;P2;durP2;ratioP2
19347;SDS011;9810;52.480;9.806;2022-08-06T00:02:04;0.90;;;0.60;;
19347;SDS011;9810;52.480;9.806;2022-08-06T00:04:33;0.83;;;0.63;;
19347;SDS011;9810;52.480;9.806;2022-08-06T00:07:02;0.70;;;0.70;;
19347;SDS011;9810;52.480;9.806;2022-08-06T00:09:30;0.80;;;0.70;;
19347;SDS011;9810;52.480;9.806;2022-08-06T00:11:58;0.90;;;0.60;;
19347;SDS011;9810;52.480;9.806;2022-08-06T00:14:25;1.50;;;0.83;;
19347;SDS011;9810;52.480;9.806;2022-08-06T00:16:53;2.90;;;1.93;;
19347;SDS011;9810;52.480;9.806;2022-08-06T00:19:20;1.60;;;0.83;;
19347;SDS011;9810;52.480;9.806;2022-08-06T00:21:49;0.77;;;0.60;;
19347;SDS011;9810;52.480;9.806;2022-08-06T00:24:16;0.80;;;0.80;;
19347;SDS011;9810;52.480;9.806;2022-08-06T00:26:44;2.57;;;1.33;;
19347;SDS011;9810;52.480;9.806;2022-08-06T00:29:12;1.87;;;0.90;;
19347;SDS011;9810;52.480;9.806;2022-08-06T00:31:39;1.27;;;0.70;;
19347;SDS011;9810;52.480;9.806;2022-08-06T00:34:06;1.70;;;0.90;;
19347;SDS011;9810;52.480;9.806;2022-08-06T00:36:34;2.97;;;1.07;;
19347;SDS011;9810;52.480;9.806;2022-08-06T00:39:04;3.13;;;0.90;;
19347;SDS011;9810;52.480;9.806;2022-08-06T00:41:32;1.00;;;0.67;;
19347;SDS011;9810;52.480;9.806;2022-08-06T00:44:00;6.10;;;1.00;;
19347;SDS011;9810;52.480;9.806;2022-08-06T00:46:27;2.73;;;0.90;;
19347;SDS011;9810;52.480;9.806;2022-08-06T00:48:55;2.60;;;0.90;;
19347;SDS011;9810;52.480;9.806;2022-08-06T00:51:22;4.30;;;1.37;;
19347;SDS011;9810;52.480;9.806;2022-08-06T00:53:51;4.13;;;1.33;;
19347;SDS011;9810;52.480;9.806;2022-08-06T00:56:20;2.77;;;1.00;;
19347;SDS011;9810;52.480;9.806;2022-08-06T00:58:47;2.80;;;0.97;;
19347;SDS011;9810;52.480;9.806;2022-08-06T01:01:15;1.67;;;0.90;;
19347;SDS011;9810;52.480;9.806;2022-08-06T01:03:42;4.63;;;0.87;;
19347;SDS011;9810;52.480;9.806;2022-08-06T01:06:10;1.70;;;0.80;;
19347;SDS011;9810;52.480;9.806;2022-08-06T01:08:37;2.40;;;2.00;;
19347;SDS011;9810;52.480;9.806;2022-08-06T01:11:04;0.70;;;0.70;;
19347;SDS011;9810;52.480;9.806;2022-08-06T01:13:33;0.87;;;0.80;;
19347;SDS011;9810;52.480;9.806;2022-08-06T01:16:04;1.70;;;0.83;;
19347;SDS011;9810;52.480;9.806;2022-08-06T01:18:39;1.43;;;0.70;;
19347;SDS011;9810;52.480;9.806;2022-08-06T01:21:16;2.20;;;0.93;;
19347;SDS011;9810;52.480;9.806;2022-08-06T01:24:02;1.17;;;0.80;;
19347;SDS011;9810;52.480;9.806;2022-08-06T01:26:48;5.40;;;1.10;;
19347;SDS011;9810;52.480;9.806;2022-08-06T01:29:20;3.90;;;0.93;;
19347;SDS011;9810;52.480;9.806;2022-08-06T01:31:52;0.93;;;0.90;;
19347;SDS011;9810;52.480;9.806;2022-08-06T01:34:23;1.70;;;0.70;;
19347;SDS011;9810;52.480;9.806;2022-08-06T01:36:58;1.27;;;1.00;;
19347;SDS011;9810;52.480;9.806;2022-08-06T01:39:30;1.27;;;1.03;;
19347;SDS011;9810;52.480;9.806;2022-08-06T01:41:58;1.60;;;0.80;;
19347;SDS011;9810;52.480;9.806;2022-08-06T01:44:30;1.83;;;1.10;;
19347;SDS011;9810;52.480;9.806;2022-08-06T01:47:01;4.13;;;1.80;;
19347;SDS011;9810;52.480;9.806;2022-08-06T01:49:34;3.90;;;0.90;;
19347;SDS011;9810;52.480;9.806;2022-08-06T01:52:04;3.03;;;1.37;;
19347;SDS011;9810;52.480;9.806;2022-08-06T01:54:34;3.07;;;1.23;;
19347;SDS011;9810;52.480;9.806;2022-08-06T01:57:05;4.10;;;1.17;;
19347;SDS011;9810;52.480;9.806;2022-08-06T01:59:36;4.07;;;1.27;;
19347;SDS011;9810;52.480;9.806;2022-08-06T02:02:09;0.97;;;0.97;;
19347;SDS011;9810;52.480;9.806;2022-08-06T02:04:42;0.93;;;0.93;;
19347;SDS011;9810;52.480;9.806;2022-08-06T02:07:12;1.50;;;1.03;;
19347;SDS011;9810;52.480;9.806;2022-08-06T02:09:41;1.83;;;1.00;;
19347;SDS011;9810;52.480;9.806;2022-08-06T02:12:12;1.40;;;0.97;;
19347;SDS011;9810;52.480;9.806;2022-08-06T02:14:46;2.07;;;1.23;;
19347;SDS011;9810;52.480;9.806;2022-08-06T02:17:18;2.20;;;0.90;;
19347;SDS011;9810;52.480;9.806;2022-08-06T02:19:48;1.53;;;1.00;;
19347;SDS011;9810;52.480;9.806;2022-08-06T02:22:17;3.80;;;1.00;;
19347;SDS011;9810;52.480;9.806;2022-08-06T02:24:46;1.47;;;1.13;;
19347;SDS011;9810;52.480;9.806;2022-08-06T02:27:15;2.10;;;0.87;;
19347;SDS011;9810;52.480;9.806;2022-08-06T02:29:46;5.17;;;1.53;;
19347;SDS011;9810;52.480;9.806;2022-08-06T02:32:14;2.77;;;1.23;;
19347;SDS011;9810;52.480;9.806;2022-08-06T02:34:42;2.50;;;1.40;;
19347;SDS011;9810;52.480;9.806;2022-08-06T02:37:10;1.90;;;1.47;;
19347;SDS011;9810;52.480;9.806;2022-08-06T02:39:44;4.00;;;1.80;;
19347;SDS011;9810;52.480;9.806;2022-08-06T02:42:17;3.50;;;1.20;;
19347;SDS011;9810;52.480;9.806;2022-08-06T02:44:52;1.90;;;1.20;;
19347;SDS011;9810;52.480;9.806;2022-08-06T02:47:28;3.73;;;2.37;;
19347;SDS011;9810;52.480;9.806;2022-08-06T02:50:00;3.17;;;1.00;;
19347;SDS011;9810;52.480;9.806;2022-08-06T02:52:32;1.60;;;1.50;;
19347;SDS011;9810;52.480;9.806;2022-08-06T02:55:07;1.97;;;1.30;;
19347;SDS011;9810;52.480;9.806;2022-08-06T02:57:38;2.40;;;1.27;;
19347;SDS011;9810;52.480;9.806;2022-08-06T03:00:16;1.43;;;1.33;;
19347;SDS011;9810;52.480;9.806;2022-08-06T03:02:44;2.30;;;1.13;;
19347;SDS011;9810;52.480;9.806;2022-08-06T03:05:14;3.20;;;1.10;;
19347;SDS011;9810;52.480;9.806;2022-08-06T03:07:44;7.37;;;1.20;;
19347;SDS011;9810;52.480;9.806;2022-08-06T03:10:16;1.77;;;1.37;;
19347;SDS011;9810;52.480;9.806;2022-08-06T03:12:45;1.43;;;1.40;;
19347;SDS011;9810;52.480;9.806;2022-08-06T03:15:16;2.13;;;1.70;;
19347;SDS011;9810;52.480;9.806;2022-08-06T03:17:45;2.67;;;1.57;;
19347;SDS011;9810;52.480;9.806;2022-08-06T03:20:14;5.33;;;1.37;;
19347;SDS011;9810;52.480;9.806;2022-08-06T03:22:46;2.30;;;1.60;;
19347;SDS011;9810;52.480;9.806;2022-08-06T03:25:16;3.63;;;1.47;;
19347;SDS011;9810;52.480;9.806;2022-08-06T03:27:45;2.43;;;2.23;;
19347;SDS011;9810;52.480;9.806;2022-08-06T03:30:14;4.67;;;1.80;;
19347;SDS011;9810;52.480;9.806;2022-08-06T03:32:45;4.73;;;1.60;;
19347;SDS011;9810;52.480;9.806;2022-08-06T03:35:13;2.20;;;1.60;;
19347;SDS011;9810;52.480;9.806;2022-08-06T03:37:43;2.50;;;1.70;;
19347;SDS011;9810;52.480;9.806;2022-08-06T03:40:11;1.90;;;1.70;;
19347;SDS011;9810;52.480;9.806;2022-08-06T03:42:40;1.77;;;1.63;;
19347;SDS011;9810;52.480;9.806;2022-08-06T03:45:08;2.40;;;1.77;;
19347;SDS011;9810;52.480;9.806;2022-08-06T03:47:40;2.87;;;1.70;;
19347;SDS011;9810;52.480;9.806;2022-08-06T03:50:10;2.73;;;1.47;;
19347;SDS011;9810;52.480;9.806;2022-08-06T03:52:41;7.17;;;2.00;;
19347;SDS011;9810;52.480;9.806;2022-08-06T03:55:25;2.63;;;1.63;;
19347;SDS011;9810;52.480;9.806;2022-08-06T03:57:56;7.80;;;1.97;;
19347;SDS011;9810;52.480;9.806;2022-08-06T04:00:32;1.93;;;1.60;;
19347;SDS011;9810;52.480;9.806;2022-08-06T04:03:03;3.47;;;1.87;;
19347;SDS011;9810;52.480;9.806;2022-08-06T04:05:32;2.50;;;1.63;;
19347;SDS011;9810;52.480;9.806;2022-08-06T04:08:03;2.23;;;1.43;;
19347;SDS011;9810;52.480;9.806;2022-08-06T04:10:32;2.20;;;1.60;;
19347;SDS011;9810;52.480;9.806;2022-08-06T04:13:03;1.50;;;1.40;;
19347;SDS011;9810;52.480;9.806;2022-08-06T04:15:32;1.63;;;1.53;;
19347;SDS011;9810;52.480;9.806;2022-08-06T04:18:00;3.43;;;1.80;;
19347;SDS011;9810;52.480;9.806;2022-08-06T04:20:30;2.30;;;1.80;;
19347;SDS011;9810;52.480;9.806;2022-08-06T04:22:59;2.47;;;1.57;;
19347;SDS011;9810;52.480;9.806;2022-08-06T04:25:28;2.17;;;1.97;;
19347;SDS011;9810;52.480;9.806;2022-08-06T04:28:01;2.93;;;1.70;;
19347;SDS011;9810;52.480;9.806;2022-08-06T04:30:30;4.90;;;2.00;;
19347;SDS011;9810;52.480;9.806;2022-08-06T04:32:59;1.63;;;1.53;;
19347;SDS011;9810;52.480;9.806;2022-08-06T04:35:30;3.07;;;1.73;;
19347;SDS011;9810;52.480;9.806;2022-08-06T04:37:57;2.53;;;1.87;;
19347;SDS011;9810;52.480;9.806;2022-08-06T04:40:26;6.13;;;1.83;;
19347;SDS011;9810;52.480;9.806;2022-08-06T04:42:54;3.10;;;1.83;;
19347;SDS011;9810;52.480;9.806;2022-08-06T04:45:22;1.50;;;1.40;;
19347;SDS011;9810;52.480;9.806;2022-08-06T04:47:51;4.63;;;1.83;;
19347;SDS011;9810;52.480;9.806;2022-08-06T04:50:19;20.93;;;2.43;;
19347;SDS011;9810;52.480;9.806;2022-08-06T04:52:48;2.17;;;2.07;;
19347;SDS011;9810;52.480;9.806;2022-08-06T04:55:17;2.00;;;1.90;;
19347;SDS011;9810;52.480;9.806;2022-08-06T04:57:45;3.43;;;1.70;;
19347;SDS011;9810;52.480;9.806;2022-08-06T05:00:12;2.47;;;1.63;;
19347;SDS011;9810;52.480;9.806;2022-08-06T05:02:40;2.87;;;1.67;;
19347;SDS011;9810;52.480;9.806;2022-08-06T05:05:07;2.93;;;1.70;;
19347;SDS011;9810;52.480;9.806;2022-08-06T05:07:38;2.20;;;2.03;;
19347;SDS011;9810;52.480;9.806;2022-08-06T05:10:09;3.50;;;2.50;;
19347;SDS011;9810;52.480;9.806;2022-08-06T05:12:37;3.13;;;2.43;;
19347;SDS011;9810;52.480;9.806;2022-08-06T05:15:08;2.73;;;2.37;;
19347;SDS011;9810;52.480;9.806;2022-08-06T05:17:42;6.23;;;2.50;;
19347;SDS011;9810;52.480;9.806;2022-08-06T05:20:12;3.73;;;2.40;;
19347;SDS011;9810;52.480;9.806;2022-08-06T05:22:43;3.83;;;2.47;;
19347;SDS011;9810;52.480;9.806;2022-08-06T05:25:15;3.13;;;2.83;;
19347;SDS011;9810;52.480;9.806;2022-08-06T05:27:43;6.80;;;2.43;;
19347;SDS011;9810;52.480;9.806;2022-08-06T05:30:11;5.23;;;2.70;;
19347;SDS011;9810;52.480;9.806;2022-08-06T05:32:41;5.60;;;2.33;;
19347;SDS011;9810;52.480;9.806;2022-08-06T05:35:09;5.03;;;2.20;;
19347;SDS011;9810;52.480;9.806;2022-08-06T05:37:37;4.30;;;2.80;;
19347;SDS011;9810;52.480;9.806;2022-08-06T05:40:05;2.70;;;2.50;;
19347;SDS011;9810;52.480;9.806;2022-08-06T05:42:34;2.50;;;2.30;;
19347;SDS011;9810;52.480;9.806;2022-08-06T05:45:02;6.87;;;3.00;;
19347;SDS011;9810;52.480;9.806;2022-08-06T05:47:32;4.53;;;3.10;;
19347;SDS011;9810;52.480;9.806;2022-08-06T05:50:04;5.27;;;2.57;;
19347;SDS011;9810;52.480;9.806;2022-08-06T05:52:35;3.67;;;2.70;;
19347;SDS011;9810;52.480;9.806;2022-08-06T05:55:08;3.10;;;2.17;;
19347;SDS011;9810;52.480;9.806;2022-08-06T05:57:44;3.53;;;2.33;;
19347;SDS011;9810;52.480;9.806;2022-08-06T06:00:16;2.70;;;2.03;;
19347;SDS011;9810;52.480;9.806;2022-08-06T06:02:46;5.80;;;2.33;;
19347;SDS011;9810;52.480;9.806;2022-08-06T06:05:14;2.20;;;2.00;;
19347;SDS011;9810;52.480;9.806;2022-08-06T06:07:42;2.70;;;2.33;;
19347;SDS011;9810;52.480;9.806;2022-08-06T06:10:10;3.07;;;1.83;;
19347;SDS011;9810;52.480;9.806;2022-08-06T06:12:38;5.07;;;2.40;;
19347;SDS011;9810;52.480;9.806;2022-08-06T06:15:09;2.03;;;1.80;;
19347;SDS011;9810;52.480;9.806;2022-08-06T06:17:46;3.47;;;2.00;;
19347;SDS011;9810;52.480;9.806;2022-08-06T06:20:25;8.70;;;2.17;;
19347;SDS011;9810;52.480;9.806;2022-08-06T06:23:00;3.47;;;1.67;;
19347;SDS011;9810;52.480;9.806;2022-08-06T06:25:35;2.07;;;1.83;;
19347;SDS011;9810;52.480;9.806;2022-08-06T06:28:14;2.50;;;2.30;;
19347;SDS011;9810;52.480;9.806;2022-08-06T06:30:53;1.93;;;1.67;;
19347;SDS011;9810;52.480;9.806;2022-08-06T06:33:24;3.23;;;1.80;;
19347;SDS011;9810;52.480;9.806;2022-08-06T06:36:00;2.87;;;1.70;;
19347;SDS011;9810;52.480;9.806;2022-08-06T06:38:31;2.20;;;1.73;;
19347;SDS011;9810;52.480;9.806;2022-08-06T06:41:09;1.57;;;1.47;;
19347;SDS011;9810;52.480;9.806;2022-08-06T06:43:42;3.67;;;1.60;;
19347;SDS011;9810;52.480;9.806;2022-08-06T06:46:17;4.37;;;1.83;;
19347;SDS011;9810;52.480;9.806;2022-08-06T06:48:48;1.63;;;1.53;;
19347;SDS011;9810;52.480;9.806;2022-08-06T06:51:19;4.13;;;1.40;;
19347;SDS011;9810;52.480;9.806;2022-08-06T06:53:51;2.30;;;1.20;;
19347;SDS011;9810;52.480;9.806;2022-08-06T06:56:23;0.97;;;0.87;;
19347;SDS011;9810;52.480;9.806;2022-08-06T06:58:55;2.53;;;0.80;;
19347;SDS011;9810;52.480;9.806;2022-08-06T07:01:29;2.30;;;1.23;;
19347;SDS011;9810;52.480;9.806;2022-08-06T07:03:59;2.47;;;1.23;;
19347;SDS011;9810;52.480;9.806;2022-08-06T07:06:29;2.13;;;1.33;;
19347;SDS011;9810;52.480;9.806;2022-08-06T07:08:59;0.93;;;0.80;;
19347;SDS011;9810;52.480;9.806;2022-08-06T07:11:28;4.43;;;0.90;;
19347;SDS011;9810;52.480;9.806;2022-08-06T07:13:57;6.07;;;1.03;;
19347;SDS011;9810;52.480;9.806;2022-08-06T07:16:26;1.43;;;0.90;;
19347;SDS011;9810;52.480;9.806;2022-08-06T07:18:57;1.03;;;0.93;;
19347;SDS011;9810;52.480;9.806;2022-08-06T07:21:28;1.83;;;0.80;;
19347;SDS011;9810;52.480;9.806;2022-08-06T07:23:55;1.67;;;1.00;;
19347;SDS011;9810;52.480;9.806;2022-08-06T07:26:22;1.03;;;0.60;;
19347;SDS011;9810;52.480;9.806;2022-08-06T07:28:51;3.70;;;1.10;;
19347;SDS011;9810;52.480;9.806;2022-08-06T07:31:21;2.63;;;0.90;;
19347;SDS011;9810;52.480;9.806;2022-08-06T07:33:51;1.53;;;0.70;;
19347;SDS011;9810;52.480;9.806;2022-08-06T07:36:21;2.93;;;0.70;;
19347;SDS011;9810;52.480;9.806;2022-08-06T07:38:49;2.47;;;0.90;;
19347;SDS011;9810;52.480;9.806;2022-08-06T07:41:19;0.83;;;0.40;;
19347;SDS011;9810;52.480;9.806;2022-08-06T07:43:48;3.07;;;0.70;;
19347;SDS011;9810;52.480;9.806;2022-08-06T07:46:20;2.10;;;0.57;;
19347;SDS011;9810;52.480;9.806;2022-08-06T07:48:49;2.17;;;0.60;;
19347;SDS011;9810;52.480;9.806;2022-08-06T07:51:23;1.83;;;1.03;;
19347;SDS011;9810;52.480;9.806;2022-08-06T07:53:54;3.45;;;0.40;;
19347;SDS011;9810;52.480;9.806;2022-08-06T07:56:22;1.52;;;0.40;;
19347;SDS011;9810;52.480;9.806;2022-08-06T07:58:52;4.57;;;0.77;;
19347;SDS011;9810;52.480;9.806;2022-08-06T08:01:20;0.38;;;0.20;;
19347;SDS011;9810;52.480;9.806;2022-08-06T08:03:50;3.22;;;0.65;;
19347;SDS011;9810;52.480;9.806;2022-08-06T08:06:36;2.95;;;0.43;;
19347;SDS011;9810;52.480;9.806;2022-08-06T08:09:04;1.58;;;0.25;;
19347;SDS011;9810;52.480;9.806;2022-08-06T08:11:34;2.20;;;0.70;;
19347;SDS011;9810;52.480;9.806;2022-08-06T08:14:06;1.25;;;0.35;;
19347;SDS011;9810;52.480;9.806;2022-08-06T08:16:34;2.03;;;0.35;;
19347;SDS011;9810;52.480;9.806;2022-08-06T08:19:02;0.68;;;0.20;;
19347;SDS011;9810;52.480;9.806;2022-08-06T08:21:47;1.50;;;0.15;;
19347;SDS011;9810;52.480;9.806;2022-08-06T08:24:14;1.92;;;0.25;;
19347;SDS011;9810;52.480;9.806;2022-08-06T08:26:42;1.73;;;0.17;;
19347;SDS011;9810;52.480;9.806;2022-08-06T08:29:10;2.08;;;0.43;;
19347;SDS011;9810;52.480;9.806;2022-08-06T08:31:37;1.40;;;0.30;;
19347;SDS011;9810;52.480;9.806;2022-08-06T08:34:05;2.20;;;0.40;;
19347;SDS011;9810;52.480;9.806;2022-08-06T08:36:32;3.05;;;0.40;;
19347;SDS011;9810;52.480;9.806;2022-08-06T08:39:02;3.33;;;0.50;;
19347;SDS011;9810;52.480;9.806;2022-08-06T08:41:31;2.33;;;0.45;;
19347;SDS011;9810;52.480;9.806;2022-08-06T08:44:02;3.03;;;0.40;;
19347;SDS011;9810;52.480;9.806;2022-08-06T08:46:32;0.75;;;0.20;;
19347;SDS011;9810;52.480;9.806;2022-08-06T08:49:02;2.92;;;0.25;;
19347;SDS011;9810;52.480;9.806;2022-08-06T08:51:31;3.25;;;0.30;;
19347;SDS011;9810;52.480;9.806;2022-08-06T08:54:00;1.00;;;0.30;;
19347;SDS011;9810;52.480;9.806;2022-08-06T08:56:32;1.45;;;0.40;;
19347;SDS011;9810;52.480;9.806;2022-08-06T08:59:00;0.77;;;0.20;;
19347;SDS011;9810;52.480;9.806;2022-08-06T09:01:28;0.43;;;0.40;;
19347;SDS011;9810;52.480;9.806;2022-08-06T09:03:56;0.68;;;0.20;;
19347;SDS011;9810;52.480;9.806;2022-08-06T09:06:24;0.55;;;0.20;;
19347;SDS011;9810;52.480;9.806;2022-08-06T09:08:51;1.20;;;0.20;;
19347;SDS011;9810;52.480;9.806;2022-08-06T09:11:20;0.63;;;0.20;;
19347;SDS011;9810;52.480;9.806;2022-08-06T09:13:48;2.58;;;0.25;;
19347;SDS011;9810;52.480;9.806;2022-08-06T09:16:15;0.68;;;0.20;;
19347;SDS011;9810;52.480;9.806;2022-08-06T09:18:43;0.80;;;0.30;;
19347;SDS011;9810;52.480;9.806;2022-08-06T09:21:10;1.50;;;0.30;;
19347;SDS011;9810;52.480;9.806;2022-08-06T09:23:38;0.52;;;0.20;;
19347;SDS011;9810;52.480;9.806;2022-08-06T09:26:05;1.40;;;0.20;;
19347;SDS011;9810;52.480;9.806;2022-08-06T09:28:35;0.52;;;0.13;;
19347;SDS011;9810;52.480;9.806;2022-08-06T09:31:05;1.42;;;0.20;;
19347;SDS011;9810;52.480;9.806;2022-08-06T09:33:33;0.43;;;0.20;;
19347;SDS011;9810;52.480;9.806;2022-08-06T09:36:03;4.57;;;0.30;;
19347;SDS011;9810;52.480;9.806;2022-08-06T09:38:32;1.75;;;0.40;;
19347;SDS011;9810;52.480;9.806;2022-08-06T09:41:10;1.50;;;0.20;;
19347;SDS011;9810;52.480;9.806;2022-08-06T09:43:40;2.28;;;0.35;;
19347;SDS011;9810;52.480;9.806;2022-08-06T09:46:08;1.48;;;0.30;;
19347;SDS011;9810;52.480;9.806;2022-08-06T09:48:36;2.35;;;0.20;;
19347;SDS011;9810;52.480;9.806;2022-08-06T09:51:03;0.90;;;0.13;;
19347;SDS011;9810;52.480;9.806;2022-08-06T09:53:31;0.80;;;0.35;;
19347;SDS011;9810;52.480;9.806;2022-08-06T09:55:58;1.10;;;0.30;;
19347;SDS011;9810;52.480;9.806;2022-08-06T09:58:26;0.80;;;0.27;;
19347;SDS011;9810;52.480;9.806;2022-08-06T10:01:23;1.23;;;0.30;;
19347;SDS011;9810;52.480;9.806;2022-08-06T10:03:51;1.88;;;0.30;;
19347;SDS011;9810;52.480;9.806;2022-08-06T10:06:20;2.05;;;0.20;;
19347;SDS011;9810;52.480;9.806;2022-08-06T10:08:47;0.88;;;0.20;;
19347;SDS011;9810;52.480;9.806;2022-08-06T10:11:16;0.32;;;0.10;;
19347;SDS011;9810;52.480;9.806;2022-08-06T10:13:59;1.50;;;0.38;;
19347;SDS011;9810;52.480;9.806;2022-08-06T10:16:28;0.30;;;0.30;;
19347;SDS011;9810;52.480;9.806;2022-08-06T10:18:56;1.10;;;0.28;;
19347;SDS011;9810;52.480;9.806;2022-08-06T10:21:25;1.48;;;0.20;;
19347;SDS011;9810;52.480;9.806;2022-08-06T10:24:02;0.90;;;0.32;;
19347;SDS011;9810;52.480;9.806;2022-08-06T10:26:32;4.30;;;0.40;;
19347;SDS011;9810;52.480;9.806;2022-08-06T10:29:00;0.55;;;0.25;;
19347;SDS011;9810;52.480;9.806;2022-08-06T10:31:31;1.80;;;0.20;;
19347;SDS011;9810;52.480;9.806;2022-08-06T10:34:00;1.67;;;0.30;;
19347;SDS011;9810;52.480;9.806;2022-08-06T10:36:34;0.93;;;0.20;;
19347;SDS011;9810;52.480;9.806;2022-08-06T10:39:03;3.40;;;0.20;;
19347;SDS011;9810;52.480;9.806;2022-08-06T10:41:30;0.63;;;0.20;;
19347;SDS011;9810;52.480;9.806;2022-08-06T10:44:00;1.83;;;0.20;;
19347;SDS011;9810;52.480;9.806;2022-08-06T10:46:29;6.03;;;0.32;;
19347;SDS011;9810;52.480;9.806;2022-08-06T10:48:59;0.13;;;0.13;;
19347;SDS011;9810;52.480;9.806;2022-08-06T10:51:27;2.47;;;0.30;;
19347;SDS011;9810;52.480;9.806;2022-08-06T10:53:55;3.30;;;0.30;;
19347;SDS011;9810;52.480;9.806;2022-08-06T10:56:22;0.95;;;0.25;;
19347;SDS011;9810;52.480;9.806;2022-08-06T10:58:51;0.85;;;0.30;;
19347;SDS011;9810;52.480;9.806;2022-08-06T11:01:26;1.27;;;0.15;;
19347;SDS011;9810;52.480;9.806;2022-08-06T11:04:10;0.70;;;0.13;;
19347;SDS011;9810;52.480;9.806;2022-08-06T11:07:11;0.85;;;0.20;;
19347;SDS011;9810;52.480;9.806;2022-08-06T11:10:00;1.52;;;0.28;;
19347;SDS011;9810;52.480;9.806;2022-08-06T11:12:45;2.05;;;0.40;;
19347;SDS011;9810;52.480;9.806;2022-08-06T11:15:16;1.15;;;0.20;;
19347;SDS011;9810;52.480;9.806;2022-08-06T11:17:44;0.88;;;0.20;;
19347;SDS011;9810;52.480;9.806;2022-08-06T11:23:26;0.88;;;0.20;;
19347;SDS011;9810;52.480;9.806;2022-08-06T11:25:55;1.48;;;0.20;;
19347;SDS011;9810;52.480;9.806;2022-08-06T11:31:35;0.15;;;0.15;;
19347;SDS011;9810;52.480;9.806;2022-08-06T11:34:09;2.35;;;0.30;;
19347;SDS011;9810;52.480;9.806;2022-08-06T11:36:45;0.38;;;0.17;;
19347;SDS011;9810;52.480;9.806;2022-08-06T11:39:14;1.45;;;0.10;;
19347;SDS011;9810;52.480;9.806;2022-08-06T11:41:51;1.42;;;0.20;;
19347;SDS011;9810;52.480;9.806;2022-08-06T11:44:23;1.65;;;0.20;;
19347;SDS011;9810;52.480;9.806;2022-08-06T11:47:08;1.08;;;0.10;;
19347;SDS011;9810;52.480;9.806;2022-08-06T11:49:38;3.70;;;0.30;;
19347;SDS011;9810;52.480;9.806;2022-08-06T11:52:08;1.02;;;0.20;;
19347;SDS011;9810;52.480;9.806;2022-08-06T11:54:36;0.10;;;0.10;;
19347;SDS011;9810;52.480;9.806;2022-08-06T11:57:24;0.77;;;0.10;;
19347;SDS011;9810;52.480;9.806;2022-08-06T12:00:06;0.17;;;0.17;;
19347;SDS011;9810;52.480;9.806;2022-08-06T12:02:48;0.57;;;0.20;;
19347;SDS011;9810;52.480;9.806;2022-08-06T12:05:38;0.82;;;0.22;;
19347;SDS011;9810;52.480;9.806;2022-08-06T12:08:27;0.80;;;0.13;;
19347;SDS011;9810;52.480;9.806;2022-08-06T12:13:52;4.47;;;1.52;;
19347;SDS011;9810;52.480;9.806;2022-08-06T12:16:34;1.25;;;0.30;;
19347;SDS011;9810;52.480;9.806;2022-08-06T12:19:13;0.10;;;0.10;;
19347;SDS011;9810;52.480;9.806;2022-08-06T12:21:42;1.60;;;0.13;;
19347;SDS011;9810;52.480;9.806;2022-08-06T12:24:11;0.10;;;0.10;;
19347;SDS011;9810;52.480;9.806;2022-08-06T12:26:39;0.82;;;0.25;;
19347;SDS011;9810;52.480;9.806;2022-08-06T12:29:07;0.47;;;0.32;;
19347;SDS011;9810;52.480;9.806;2022-08-06T12:31:35;0.32;;;0.20;;
19347;SDS011;9810;52.480;9.806;2022-08-06T12:34:04;0.28;;;0.10;;
19347;SDS011;9810;52.480;9.806;2022-08-06T12:36:33;0.20;;;0.20;;
19347;SDS011;9810;52.480;9.806;2022-08-06T12:39:04;0.30;;;0.30;;
19347;SDS011;9810;52.480;9.806;2022-08-06T12:41:35;0.20;;;0.10;;
19347;SDS011;9810;52.480;9.806;2022-08-06T12:44:09;1.23;;;0.28;;
19347;SDS011;9810;52.480;9.806;2022-08-06T12:46:38;1.42;;;0.22;;
19347;SDS011;9810;52.480;9.806;2022-08-06T12:49:05;0.20;;;0.10;;
19347;SDS011;9810;52.480;9.806;2022-08-06T12:51:33;0.35;;;0.10;;
19347;SDS011;9810;52.480;9.806;2022-08-06T12:54:02;0.43;;;0.10;;
19347;SDS011;9810;52.480;9.806;2022-08-06T12:56:36;0.65;;;0.10;;
19347;SDS011;9810;52.480;9.806;2022-08-06T12:59:06;0.75;;;0.20;;
19347;SDS011;9810;52.480;9.806;2022-08-06T13:01:36;0.35;;;0.30;;
19347;SDS011;9810;52.480;9.806;2022-08-06T13:04:05;0.20;;;0.20;;
19347;SDS011;9810;52.480;9.806;2022-08-06T13:06:35;2.25;;;0.28;;
19347;SDS011;9810;52.480;9.806;2022-08-06T13:09:03;1.52;;;0.28;;
19347;SDS011;9810;52.480;9.806;2022-08-06T13:11:31;0.52;;;0.20;;
19347;SDS011;9810;52.480;9.806;2022-08-06T13:14:09;1.55;;;0.22;;
19347;SDS011;9810;52.480;9.806;2022-08-06T13:16:38;0.40;;;0.20;;
19347;SDS011;9810;52.480;9.806;2022-08-06T13:19:09;0.10;;;0.10;;
19347;SDS011;9810;52.480;9.806;2022-08-06T13:21:37;0.32;;;0.30;;
19347;SDS011;9810;52.480;9.806;2022-08-06T13:24:05;0.85;;;0.10;;
19347;SDS011;9810;52.480;9.806;2022-08-06T13:26:34;1.77;;;0.30;;
19347;SDS011;9810;52.480;9.806;2022-08-06T13:29:16;0.17;;;0.10;;
19347;SDS011;9810;52.480;9.806;2022-08-06T13:31:45;0.90;;;0.10;;
19347;SDS011;9810;52.480;9.806;2022-08-06T13:34:13;0.20;;;0.20;;
19347;SDS011;9810;52.480;9.806;2022-08-06T13:36:45;0.77;;;0.30;;
19347;SDS011;9810;52.480;9.806;2022-08-06T13:39:20;0.10;;;0.10;;
19347;SDS011;9810;52.480;9.806;2022-08-06T13:41:59;2.40;;;0.20;;
19347;SDS011;9810;52.480;9.806;2022-08-06T13:44:31;0.68;;;0.22;;
19347;SDS011;9810;52.480;9.806;2022-08-06T13:47:00;2.38;;;0.20;;
19347;SDS011;9810;52.480;9.806;2022-08-06T13:49:27;1.02;;;0.22;;
19347;SDS011;9810;52.480;9.806;2022-08-06T13:51:55;2.10;;;0.20;;
19347;SDS011;9810;52.480;9.806;2022-08-06T13:54:22;0.95;;;0.20;;
19347;SDS011;9810;52.480;9.806;2022-08-06T13:56:51;0.68;;;0.20;;
19347;SDS011;9810;52.480;9.806;2022-08-06T13:59:18;0.10;;;0.10;;
19347;SDS011;9810;52.480;9.806;2022-08-06T14:01:49;2.28;;;0.20;;
19347;SDS011;9810;52.480;9.806;2022-08-06T14:04:17;1.50;;;0.28;;
19347;SDS011;9810;52.480;9.806;2022-08-06T14:06:47;0.88;;;0.25;;
19347;SDS011;9810;52.480;9.806;2022-08-06T14:09:16;0.10;;;0.10;;
19347;SDS011;9810;52.480;9.806;2022-08-06T14:11:45;0.22;;;0.15;;
19347;SDS011;9810;52.480;9.806;2022-08-06T14:14:12;0.75;;;0.10;;
19347;SDS011;9810;52.480;9.806;2022-08-06T14:16:39;0.20;;;0.20;;
19347;SDS011;9810;52.480;9.806;2022-08-06T14:19:08;1.50;;;0.20;;
19347;SDS011;9810;52.480;9.806;2022-08-06T14:21:36;0.10;;;0.10;;
19347;SDS011;9810;52.480;9.806;2022-08-06T14:24:03;1.52;;;0.20;;
19347;SDS011;9810;52.480;9.806;2022-08-06T14:26:31;0.98;;;0.20;;
19347;SDS011;9810;52.480;9.806;2022-08-06T14:28:58;0.47;;;0.13;;
19347;SDS011;9810;52.480;9.806;2022-08-06T14:31:26;0.30;;;0.30;;
19347;SDS011;9810;52.480;9.806;2022-08-06T14:33:53;0.75;;;0.30;;
19347;SDS011;9810;52.480;9.806;2022-08-06T14:36:22;0.22;;;0.17;;
19347;SDS011;9810;52.480;9.806;2022-08-06T14:38:49;0.68;;;0.20;;
19347;SDS011;9810;52.480;9.806;2022-08-06T14:41:16;1.08;;;0.30;;
19347;SDS011;9810;52.480;9.806;2022-08-06T14:44:01;2.70;;;0.20;;
19347;SDS011;9810;52.480;9.806;2022-08-06T14:46:45;0.13;;;0.10;;
19347;SDS011;9810;52.480;9.806;2022-08-06T14:49:12;0.65;;;0.30;;
19347;SDS011;9810;52.480;9.806;2022-08-06T14:51:41;1.17;;;0.20;;
19347;SDS011;9810;52.480;9.806;2022-08-06T14:54:08;0.30;;;0.20;;
19347;SDS011;9810;52.480;9.806;2022-08-06T14:56:36;0.30;;;0.20;;
19347;SDS011;9810;52.480;9.806;2022-08-06T14:59:03;1.02;;;0.10;;
19347;SDS011;9810;52.480;9.806;2022-08-06T15:01:31;1.30;;;0.20;;
19347;SDS011;9810;52.480;9.806;2022-08-06T15:03:58;1.23;;;0.30;;
19347;SDS011;9810;52.480;9.806;2022-08-06T15:06:26;0.65;;;0.35;;
19347;SDS011;9810;52.480;9.806;2022-08-06T15:08:55;0.20;;;0.10;;
19347;SDS011;9810;52.480;9.806;2022-08-06T15:11:22;0.22;;;0.17;;
19347;SDS011;9810;52.480;9.806;2022-08-06T15:13:49;0.30;;;0.20;;
19347;SDS011;9810;52.480;9.806;2022-08-06T15:16:16;0.88;;;0.17;;
19347;SDS011;9810;52.480;9.806;2022-08-06T15:18:44;1.08;;;0.30;;
19347;SDS011;9810;52.480;9.806;2022-08-06T15:21:11;0.38;;;0.32;;
19347;SDS011;9810;52.480;9.806;2022-08-06T15:23:38;0.35;;;0.10;;
19347;SDS011;9810;52.480;9.806;2022-08-06T15:26:07;0.30;;;0.20;;
19347;SDS011;9810;52.480;9.806;2022-08-06T15:28:35;1.27;;;0.13;;
19347;SDS011;9810;52.480;9.806;2022-08-06T15:31:02;1.67;;;0.28;;